Terminal Aerodrome Forecast
Issued by NWS

Home | Current Version | Previous Version | Text Only | Print | Product List | Glossary On
Versions: 1 2 3 4 5 6 7 8 9 10 11 12 13 14 15 16 17 18 19
000
FTUS42 KTBW 271121
TAFPIE
TAF
KPIE 271121Z 2712/2812 10007KT P6SM SCT040 BKN200
     FM272000 VRB06KT P6SM VCTS FEW050CB SCT250
     FM280000 06011G16KT P6SM SCT045 BKN250
     FM280300 10010KT P6SM SCT250=

USA.gov is the U.S. government's official web portal to all federal, state and local government web resources and services.